University City, Missouri
Current Conditions -  °F | °C
As of 2:51 PM on Saturday 20 Dec 2014 (Local Time) from KSTL Reporting Station
Overcast Overcast  
Wind Chill: 38°   Ceiling: 3200
Heat Index: 43°   Visibility: 7mi
Dew Point: 32°   Wind: 8mph
Humidity: 65%   Direction: 140°SE
Pressure: 30.23"   Gusts: NA
Location:  38.66°N, 90.31°W
Report Text: KSTL 202051Z 14007KT 7SM OVC032 06/00 A3023 RMK AO2 SLP242 T00610000 55008
Loading
Personal Weather Stations






























Interactive Weather Map New forecast layout! Learn more

10-Day Weather Forecast

Advertisements
Track Severe Weather on mobile